Ulceby, United Kingdom
Current Conditions -  °F | °C
As of 5:50 AM on Thursday 27 Nov 2014 (Local Time) from EGNJ Reporting Station
Moderate Fog Moderate Fog  
Wind Chill: 46°   Ceiling: 3500
Heat Index: 46°   Visibility: 1.2mi
Dew Point: 46°   Wind: 3mph
Humidity: 100%   Direction: 100°E
Pressure: 29.65"   Gusts: NA
Location:  53.58°N, 0.32°W
Report Text: EGNJ 270550Z 10003KT 2000 FG FEW007 SCT010 BKN035 08/08 Q1004 RERA
Loading
Personal Weather Stations






























Interactive Weather Map New forecast layout! Learn more

10-Day Weather Forecast

Advertisements
Track Severe Weather on mobile